Terminal Aerodrome Forecast
Issued by NWS Louisville, KY

Home | Current Version | Previous Version | Text Only | Print | Product List | Glossary On
Versions: 1 2 3 4 5 6 7 8 9 10 11 12 13 14 15 16 17 18 19 20
189
FTUS43 KLMK 192158 AAA
TAFSDF
TAF AMD
KSDF 192158Z 1922/2024 20012G18KT P6SM VCTS SCT030CB BKN090
      TEMPO 1922/2001 3SM TSRA BKN030CB
     FM200300 17004KT P6SM SCT040 SCT200
     FM200600 VRB03KT P6SM VCTS SCT045CB BKN200
     FM201200 15006KT P6SM SCT045 OVC100
     FM201500 19008KT P6SM SCT040 BKN100=

USA.gov is the U.S. government's official web portal to all federal, state and local government web resources and services.